createdAt,value
2023-04-13T00:08:11.812Z,9.90
2023-04-13T00:18:13.538Z,9.90
2023-04-13T00:28:16.647Z,9.80
2023-04-13T00:38:18.282Z,9.80
2023-04-13T00:48:20.705Z,9.70
2023-04-13T00:58:22.903Z,9.40
2023-04-13T01:08:39.928Z,9.40
2023-04-13T01:18:45.496Z,9.20
2023-04-13T01:28:47.994Z,9.20
2023-04-13T01:38:50.163Z,9.30
2023-04-13T01:48:55.608Z,9.40
2023-04-13T01:58:58.925Z,9.30
2023-04-13T02:09:00.761Z,9.30
2023-04-13T02:19:02.456Z,9.20
2023-04-13T02:29:04.117Z,9.10
2023-04-13T02:39:05.835Z,9.10
2023-04-13T02:49:08.913Z,9.10
2023-04-13T02:59:10.708Z,9.00
2023-04-13T03:09:12.385Z,8.90
2023-04-13T03:19:14.377Z,8.80
2023-04-13T03:29:16.141Z,9.00
2023-04-13T03:39:17.801Z,8.90
2023-04-13T03:49:19.493Z,8.80
2023-04-13T03:59:21.134Z,8.70
2023-04-13T04:09:22.776Z,8.80
2023-04-13T04:19:24.467Z,8.90
2023-04-13T04:29:35.067Z,9.00
2023-04-13T04:39:44.497Z,9.10
2023-04-13T04:49:46.295Z,9.10
2023-04-13T04:59:49.238Z,9.20
2023-04-13T05:09:50.914Z,9.10
2023-04-13T05:19:52.792Z,9.10
2023-04-13T05:33:49.813Z,9.60
2023-04-13T05:43:51.448Z,9.80
2023-04-13T05:53:53.327Z,9.80
2023-04-13T06:03:55.981Z,9.80
2023-04-13T06:14:00.076Z,9.80
2023-04-13T06:24:01.979Z,9.80
2023-04-13T06:34:03.692Z,10.00
2023-04-13T06:44:05.621Z,10.00
2023-04-13T07:04:09.612Z,9.90
2023-04-13T07:14:11.312Z,10.00
2023-04-13T07:24:12.965Z,10.10
2023-04-13T07:34:14.651Z,10.30
2023-04-13T07:44:16.517Z,10.60
2023-04-13T07:54:18.464Z,10.90
2023-04-13T08:04:22.207Z,11.00
2023-04-13T08:14:24.048Z,11.00
2023-04-13T08:34:28.139Z,10.90
2023-04-13T08:44:30.471Z,10.90
2023-04-13T08:54:32.901Z,10.90
2023-04-13T09:04:36.953Z,11.10
2023-04-13T09:14:38.974Z,11.30
2023-04-13T09:24:41.441Z,11.30
2023-04-13T09:34:43.186Z,11.30
2023-04-13T09:44:54.964Z,11.40
2023-04-13T09:54:58.810Z,11.70
2023-04-13T10:05:01.296Z,12.20
2023-04-13T10:15:31.465Z,12.50
2023-04-13T10:25:35.075Z,12.20
2023-04-13T10:35:40.084Z,12.40
2023-04-13T10:45:43.783Z,12.50
2023-04-13T10:55:45.403Z,12.60
2023-04-13T11:05:57.078Z,12.90
2023-04-13T11:16:03.343Z,13.00
2023-04-13T11:26:05.755Z,13.10
2023-04-13T11:36:08.026Z,13.50
2023-04-13T11:46:12.795Z,13.20
2023-04-13T11:56:14.744Z,13.20
2023-04-13T12:06:17.571Z,13.20
2023-04-13T12:27:16.410Z,13.20
2023-04-13T12:36:57.843Z,13.40
2023-04-13T12:46:59.577Z,13.50
2023-04-13T12:57:01.604Z,13.30
2023-04-13T13:07:03.255Z,13.80
2023-04-13T13:17:04.911Z,13.80
2023-04-13T13:37:11.385Z,12.30
2023-04-13T13:47:13.351Z,12.30
2023-04-13T13:57:15.020Z,12.70
2023-04-13T14:07:16.722Z,13.20
2023-04-13T14:17:18.404Z,14.60
2023-04-13T14:27:20.493Z,15.10
2023-04-13T14:37:23.627Z,17.50
2023-04-13T14:47:25.369Z,16.00
2023-04-13T14:57:28.321Z,15.80
2023-04-13T15:07:30.073Z,15.90
2023-04-13T15:17:31.714Z,16.30
2023-04-13T15:27:34.610Z,15.70
2023-04-13T15:37:36.468Z,15.60
2023-04-13T15:47:38.601Z,14.80
2023-04-13T15:57:40.495Z,14.20
2023-04-13T16:07:42.192Z,13.90
2023-04-13T16:17:44.762Z,12.90
2023-04-13T16:27:48.452Z,11.40
2023-04-13T16:37:50.272Z,11.40
2023-04-13T16:47:55.396Z,10.70
2023-04-13T16:57:57.423Z,9.90
2023-04-13T17:07:59.116Z,9.90
2023-04-13T17:18:01.099Z,10.00
2023-04-13T17:28:02.831Z,10.10
2023-04-13T17:38:04.732Z,10.20
2023-04-13T17:48:06.456Z,10.40
2023-04-13T17:58:08.137Z,10.40
2023-04-13T18:08:09.761Z,10.30
2023-04-13T18:18:11.416Z,10.40
2023-04-13T18:28:13.069Z,10.20
2023-04-13T18:38:14.711Z,10.20
2023-04-13T18:48:16.347Z,10.00
2023-04-13T18:58:21.151Z,9.90
2023-04-13T19:08:22.802Z,9.90
2023-04-13T19:18:24.964Z,9.80
2023-04-13T19:28:27.162Z,9.40
2023-04-13T19:38:28.819Z,9.20
2023-04-13T19:48:30.884Z,9.20
2023-04-13T19:58:32.789Z,8.90
2023-04-13T20:08:34.574Z,8.80
2023-04-13T20:18:36.224Z,8.80
2023-04-13T20:28:38.831Z,8.70
2023-04-13T20:38:42.900Z,8.70
2023-04-13T20:58:50.021Z,8.40
2023-04-13T21:08:52.876Z,8.30
2023-04-13T21:18:55.042Z,8.30
2023-04-13T21:28:56.664Z,8.00
2023-04-13T21:38:58.743Z,7.90
2023-04-13T21:49:00.909Z,7.80
2023-04-13T21:59:02.842Z,7.80
2023-04-13T22:09:04.901Z,7.70
2023-04-13T22:19:06.561Z,7.60
2023-04-13T22:29:08.904Z,7.50
2023-04-13T22:39:10.528Z,7.40
2023-04-13T22:49:12.177Z,7.30
2023-04-13T23:09:16.238Z,7.40
2023-04-13T23:19:21.061Z,7.30
2023-04-13T23:29:22.816Z,7.10
2023-04-13T23:39:24.523Z,7.10
2023-04-13T23:49:26.492Z,7.00
2023-04-13T23:59:28.175Z,6.90
